createdAt,value
2018-07-13T00:01:34.787Z,100477.82
2018-07-13T00:04:01.712Z,100475.61
2018-07-13T00:06:29.201Z,100477.06
2018-07-13T00:08:56.111Z,100478.72
2018-07-13T00:11:23.001Z,100483.25
2018-07-13T00:14:05.999Z,100484.95
2018-07-13T00:16:32.908Z,100484.01
2018-07-13T00:18:59.804Z,100488.39
2018-07-13T00:21:26.698Z,100489.03
2018-07-13T00:23:53.652Z,100492.05
2018-07-13T00:26:22.583Z,100485.56
2018-07-13T00:28:49.567Z,100484.58
2018-07-13T00:31:16.501Z,100482.94
2018-07-13T00:33:43.420Z,100484.33
2018-07-13T00:36:10.414Z,100488.83
2018-07-13T00:38:37.311Z,100493.11
2018-07-13T00:41:04.203Z,100491.89
2018-07-13T00:43:32.181Z,100493.78
2018-07-13T00:45:59.103Z,100491.06
2018-07-13T00:48:25.999Z,100488.37
2018-07-13T00:50:52.896Z,100494.56
2018-07-13T00:53:19.796Z,100496.34
2018-07-13T00:55:46.688Z,100501.09
2018-07-13T00:58:13.611Z,100495.41
2018-07-13T01:00:40.558Z,100492.45
2018-07-13T01:03:07.494Z,100501.80
2018-07-13T01:05:34.407Z,100499.29
2018-07-13T01:08:01.293Z,100499.47
2018-07-13T01:10:28.213Z,100504.85
2018-07-13T01:12:55.159Z,100507.48
2018-07-13T01:15:22.320Z,100508.44
2018-07-13T01:17:49.320Z,100507.13
2018-07-13T01:20:16.175Z,100509.15
2018-07-13T01:22:43.078Z,100509.75
2018-07-13T01:25:11.752Z,100505.21
2018-07-13T01:27:38.642Z,100507.38
2018-07-13T01:30:06.551Z,100501.31
2018-07-13T01:32:33.447Z,100506.08
2018-07-13T01:35:00.337Z,100507.45
2018-07-13T01:37:27.332Z,100504.89
2018-07-13T01:39:54.271Z,100506.08
2018-07-13T01:42:21.174Z,100509.70
2018-07-13T01:44:48.080Z,100510.06
2018-07-13T01:47:14.996Z,100510.73
2018-07-13T01:49:41.933Z,100514.50
2018-07-13T01:52:08.859Z,100512.22
2018-07-13T01:54:35.765Z,100518.59
2018-07-13T01:57:02.879Z,100516.64
2018-07-13T01:59:29.809Z,100520.38
2018-07-13T02:01:56.754Z,100514.81
2018-07-13T02:04:23.647Z,100519.26
2018-07-13T02:06:50.523Z,100513.36
2018-07-13T02:09:17.423Z,100519.71
2018-07-13T02:11:47.443Z,100521.02
2018-07-13T02:14:14.344Z,100517.73
2018-07-13T02:16:41.258Z,100521.65
2018-07-13T02:19:08.135Z,100523.44
2018-07-13T02:21:35.059Z,100521.50
2018-07-13T02:24:01.931Z,100527.88
2018-07-13T02:26:29.120Z,100526.23
2018-07-13T02:28:56.018Z,100523.09
2018-07-13T02:31:22.920Z,100528.45
2018-07-13T02:33:49.849Z,100520.56
2018-07-13T02:36:16.705Z,100526.04
2018-07-13T02:38:43.615Z,100527.77
2018-07-13T02:41:10.497Z,100522.90
2018-07-13T02:43:37.391Z,100524.23
2018-07-13T02:46:04.324Z,100525.47
2018-07-13T02:48:31.203Z,100529.28
2018-07-13T02:50:58.115Z,100531.78
2018-07-13T02:53:25.003Z,100537.70
2018-07-13T02:55:51.912Z,100533.95
2018-07-13T02:58:18.792Z,100531.20
2018-07-13T03:00:45.713Z,100537.55
2018-07-13T03:03:12.623Z,100540.50
2018-07-13T03:05:39.517Z,100541.78
2018-07-13T03:08:07.445Z,100543.30
2018-07-13T03:10:34.341Z,100544.10
2018-07-13T03:13:01.209Z,100546.90
2018-07-13T03:15:28.096Z,100550.48
2018-07-13T03:17:54.991Z,100556.21
2018-07-13T03:20:25.165Z,100555.70
2018-07-13T03:22:52.063Z,100559.44
2018-07-13T03:25:19.012Z,100555.09
2018-07-13T03:27:45.907Z,100554.73
2018-07-13T03:30:12.790Z,100557.65
2018-07-13T03:32:39.748Z,100555.50
2018-07-13T03:35:06.707Z,100560.20
2018-07-13T03:37:33.640Z,100556.94
2018-07-13T03:40:00.942Z,100556.08
2018-07-13T03:42:27.841Z,100558.64
2018-07-13T03:44:54.722Z,100559.34
2018-07-13T03:47:21.612Z,100558.73
2018-07-13T03:49:48.540Z,100563.76
2018-07-13T03:52:15.441Z,100559.30
2018-07-13T03:54:42.332Z,100559.84
2018-07-13T03:57:09.216Z,100557.44
2018-07-13T03:59:36.250Z,100566.04
2018-07-13T04:02:03.184Z,100556.34
2018-07-13T04:04:30.081Z,100555.98
2018-07-13T04:06:56.981Z,100563.10
2018-07-13T04:09:23.903Z,100565.87
2018-07-13T04:11:51.062Z,100567.48
2018-07-13T04:14:17.972Z,100562.78
2018-07-13T04:16:44.873Z,100555.15
2018-07-13T04:19:11.756Z,100557.84
2018-07-13T04:21:38.667Z,100561.41
2018-07-13T04:24:14.175Z,100559.39
2018-07-13T04:26:43.950Z,100560.28
2018-07-13T04:29:10.831Z,100558.38
2018-07-13T04:31:37.754Z,100562.87
2018-07-13T04:34:04.696Z,100562.87
2018-07-13T04:36:31.540Z,100558.27
2018-07-13T04:38:58.450Z,100556.21
2018-07-13T04:41:25.358Z,100557.84
2018-07-13T04:43:52.255Z,100564.62
2018-07-13T04:46:19.196Z,100560.61
2018-07-13T04:48:46.081Z,100554.69
2018-07-13T04:51:12.971Z,100560.38
2018-07-13T04:53:39.874Z,100553.44
2018-07-13T04:56:06.776Z,100547.89
2018-07-13T04:58:33.694Z,100550.38
2018-07-13T05:01:00.619Z,100554.44
2018-07-13T05:03:29.537Z,100560.60
2018-07-13T05:05:56.472Z,100554.00
2018-07-13T05:08:25.550Z,100566.20
2018-07-13T05:10:52.535Z,100568.05
2018-07-13T05:13:19.442Z,100573.30
2018-07-13T05:15:46.380Z,100574.01
2018-07-13T05:18:15.011Z,100573.20
2018-07-13T05:20:43.068Z,100570.95
2018-07-13T05:23:11.019Z,100576.22
2018-07-13T05:25:37.935Z,100571.65
2018-07-13T05:28:05.092Z,100570.64
2018-07-13T05:30:33.215Z,100574.10
2018-07-13T05:33:00.248Z,100568.14
2018-07-13T05:35:28.943Z,100569.74
2018-07-13T05:38:04.071Z,100575.92
2018-07-13T05:40:37.523Z,100574.11
2018-07-13T05:43:04.502Z,100574.33
2018-07-13T05:45:31.512Z,100578.38
2018-07-13T05:47:59.380Z,100570.83
2018-07-13T05:50:29.431Z,100578.34
2018-07-13T05:52:56.486Z,100582.78
2018-07-13T05:55:23.520Z,100580.30
2018-07-13T05:57:54.822Z,100581.76
2018-07-13T06:00:22.563Z,100577.26
2018-07-13T06:02:49.840Z,100580.77
2018-07-13T06:05:16.786Z,100588.23
2018-07-13T06:07:43.690Z,100585.58
2018-07-13T06:10:10.587Z,100582.58
2018-07-13T06:12:37.495Z,100595.64
2018-07-13T06:15:04.450Z,100593.33
2018-07-13T06:17:31.326Z,100600.86
2018-07-13T06:19:58.225Z,100595.20
2018-07-13T06:22:25.188Z,100593.45
2018-07-13T06:24:52.164Z,100588.23
2018-07-13T06:27:19.064Z,100593.04
2018-07-13T06:29:45.980Z,100592.14
2018-07-13T06:32:12.873Z,100592.61
2018-07-13T06:34:39.759Z,100598.54
2018-07-13T06:37:06.660Z,100596.83
2018-07-13T06:39:33.557Z,100602.95
2018-07-13T06:42:00.840Z,100602.20
2018-07-13T06:44:27.758Z,100599.72
2018-07-13T06:46:54.628Z,100603.10
2018-07-13T06:49:21.530Z,100600.50
2018-07-13T06:51:48.449Z,100610.63
2018-07-13T06:54:15.523Z,100605.72
2018-07-13T06:56:43.462Z,100611.14
2018-07-13T06:59:16.221Z,100614.84
2018-07-13T07:01:43.787Z,100617.48
2018-07-13T07:04:35.124Z,100614.53
2018-07-13T07:07:06.725Z,100604.74
2018-07-13T07:09:33.688Z,100612.26
2018-07-13T07:12:26.839Z,100610.67
2018-07-13T07:14:53.740Z,100613.89
2018-07-13T07:17:20.655Z,100612.39
2018-07-13T07:19:47.552Z,100613.39
2018-07-13T07:22:14.536Z,100617.44
2018-07-13T07:24:41.455Z,100607.03
2018-07-13T07:27:08.379Z,100613.22
2018-07-13T07:29:35.285Z,100616.33
2018-07-13T07:32:02.185Z,100611.13
2018-07-13T07:34:29.091Z,100606.92
2018-07-13T07:36:56.286Z,100606.73
2018-07-13T07:39:23.523Z,100605.10
2018-07-13T07:41:51.305Z,100609.39
2018-07-13T07:44:18.208Z,100595.36
2018-07-13T07:46:45.412Z,100596.98
2018-07-13T07:49:12.610Z,100603.81
2018-07-13T07:51:39.509Z,100590.92
2018-07-13T07:54:06.425Z,100596.45
2018-07-13T07:56:33.352Z,100594.51
2018-07-13T07:59:00.243Z,100593.86
2018-07-13T08:01:27.160Z,100598.67
2018-07-13T08:03:54.070Z,100588.42
2018-07-13T08:06:21.135Z,100588.30
2018-07-13T08:08:47.913Z,100589.98
2018-07-13T08:11:15.236Z,100595.08
2018-07-13T08:13:42.255Z,100587.95
2018-07-13T08:16:09.116Z,100590.54
2018-07-13T08:18:36.022Z,100587.52
2018-07-13T08:21:02.919Z,100585.73
2018-07-13T08:23:29.829Z,100589.62
2018-07-13T08:25:56.746Z,100588.95
2018-07-13T08:28:23.768Z,100579.00
2018-07-13T08:30:54.951Z,100582.68
2018-07-13T08:33:21.867Z,100581.53
2018-07-13T08:35:48.779Z,100575.86
2018-07-13T08:38:15.687Z,100571.25
2018-07-13T08:40:42.597Z,100576.07
2018-07-13T08:43:09.488Z,100578.23
2018-07-13T08:45:36.399Z,100575.80
2018-07-13T08:48:05.491Z,100574.15
2018-07-13T08:50:32.416Z,100578.87
2018-07-13T08:52:59.342Z,100571.80
2018-07-13T08:55:26.259Z,100566.13
2018-07-13T08:57:53.218Z,100571.46
2018-07-13T09:00:20.220Z,100575.25
2018-07-13T09:02:47.167Z,100574.84
2018-07-13T09:05:14.079Z,100577.41
2018-07-13T09:07:41.000Z,100571.87
2018-07-13T09:10:09.396Z,100573.34
2018-07-13T09:12:36.439Z,100571.08
2018-07-13T09:15:03.360Z,100565.86
2018-07-13T09:17:30.258Z,100571.22
2018-07-13T09:19:57.196Z,100570.43
2018-07-13T09:22:24.151Z,100569.44
2018-07-13T09:24:51.076Z,100572.86
2018-07-13T09:27:17.999Z,100571.53
2018-07-13T09:29:45.003Z,100569.11
2018-07-13T09:32:11.967Z,100581.00
2018-07-13T09:34:38.928Z,100580.44
2018-07-13T09:37:05.977Z,100574.73
2018-07-13T09:39:32.891Z,100573.06
2018-07-13T09:41:59.794Z,100570.83
2018-07-13T09:44:26.703Z,100572.81
2018-07-13T09:46:53.705Z,100578.31
2018-07-13T09:49:20.503Z,100570.66
2018-07-13T09:51:47.452Z,100569.02
2018-07-13T09:54:14.432Z,100572.16
2018-07-13T09:56:41.248Z,100565.91
2018-07-13T09:59:08.176Z,100567.80
2018-07-13T10:01:35.109Z,100562.55
2018-07-13T10:04:02.016Z,100563.47
2018-07-13T10:06:28.937Z,100564.03
2018-07-13T10:08:55.900Z,100558.84
2018-07-13T10:11:23.784Z,100570.05
2018-07-13T10:13:50.746Z,100560.00
2018-07-13T10:16:17.651Z,100565.65
2018-07-13T10:18:44.537Z,100565.39
2018-07-13T10:21:11.440Z,100565.72
2018-07-13T10:23:38.644Z,100564.23
2018-07-13T10:26:07.571Z,100567.91
2018-07-13T10:28:37.096Z,100552.63
2018-07-13T10:31:03.996Z,100554.93
2018-07-13T10:33:32.075Z,100554.17
2018-07-13T10:36:00.442Z,100555.04
2018-07-13T10:38:27.369Z,100551.02
2018-07-13T10:40:55.076Z,100554.27
2018-07-13T10:43:22.014Z,100546.58
2018-07-13T10:45:48.903Z,100550.53
2018-07-13T10:48:15.785Z,100545.52
2018-07-13T10:50:42.693Z,100557.59
2018-07-13T10:53:09.605Z,100546.00
2018-07-13T10:55:36.520Z,100553.78
2018-07-13T10:58:03.457Z,100550.97
2018-07-13T11:00:30.394Z,100560.27
2018-07-13T11:02:57.360Z,100551.55
2018-07-13T11:05:24.238Z,100553.94
2018-07-13T11:07:51.170Z,100547.28
2018-07-13T11:10:18.060Z,100553.61
2018-07-13T11:12:44.976Z,100539.04
2018-07-13T11:15:11.892Z,100536.56
2018-07-13T11:17:38.791Z,100531.53
2018-07-13T11:20:06.591Z,100528.86
2018-07-13T11:22:33.512Z,100530.73
2018-07-13T11:25:00.406Z,100529.05
2018-07-13T11:27:27.306Z,100530.75
2018-07-13T11:29:54.211Z,100520.17
2018-07-13T11:32:21.131Z,100520.47
2018-07-13T11:34:48.068Z,100521.14
2018-07-13T11:37:15.081Z,100522.30
2018-07-13T11:39:41.959Z,100531.56
2018-07-13T11:42:08.913Z,100524.74
2018-07-13T11:44:35.852Z,100517.01
2018-07-13T11:47:02.763Z,100509.98
2018-07-13T11:49:29.667Z,100506.00
2018-07-13T11:51:56.583Z,100512.85
2018-07-13T11:54:23.556Z,100510.80
2018-07-13T11:56:50.415Z,100505.70
2018-07-13T11:59:17.319Z,100504.44
2018-07-13T12:01:44.227Z,100491.34
2018-07-13T12:04:11.182Z,100496.62
2018-07-13T12:06:38.105Z,100489.91
2018-07-13T12:09:05.467Z,100493.39
2018-07-13T12:11:32.682Z,100483.67
2018-07-13T12:13:59.564Z,100472.75
2018-07-13T12:16:26.523Z,100475.16
2018-07-13T12:18:53.432Z,100475.39
2018-07-13T12:21:20.364Z,100472.77
2018-07-13T12:23:47.272Z,100465.66
2018-07-13T12:26:14.191Z,100467.91
2018-07-13T12:28:41.205Z,100462.52
2018-07-13T12:31:08.132Z,100460.98
2018-07-13T12:33:35.046Z,100468.64
2018-07-13T12:36:01.940Z,100465.20
2018-07-13T12:38:28.850Z,100463.71
2018-07-13T12:40:55.764Z,100457.19
2018-07-13T12:43:23.652Z,100461.41
2018-07-13T12:45:50.569Z,100457.09
2018-07-13T12:48:17.504Z,100456.58
2018-07-13T12:50:44.432Z,100452.58
2018-07-13T12:53:11.367Z,100458.22
2018-07-13T12:55:38.271Z,100448.51
2018-07-13T12:58:05.294Z,100443.13
2018-07-13T13:00:32.235Z,100432.22
2018-07-13T13:02:59.177Z,100434.73
2018-07-13T13:05:26.153Z,100437.88
2018-07-13T13:07:53.047Z,100436.80
2018-07-13T13:10:19.932Z,100428.14
2018-07-13T13:12:46.819Z,100427.81
2018-07-13T13:15:13.818Z,100437.44
2018-07-13T13:17:40.737Z,100432.55
2018-07-13T13:20:07.637Z,100428.32
2018-07-13T13:22:34.592Z,100419.74
2018-07-13T13:25:01.484Z,100427.48
2018-07-13T13:27:28.377Z,100432.06
2018-07-13T13:29:55.444Z,100431.80
2018-07-13T13:32:22.365Z,100421.05
2018-07-13T13:34:49.280Z,100415.56
2018-07-13T13:37:16.181Z,100427.04
2018-07-13T13:39:43.126Z,100420.29
2018-07-13T13:42:10.144Z,100423.09
2018-07-13T13:44:37.067Z,100418.27
2018-07-13T13:47:05.082Z,100422.95
2018-07-13T13:49:32.845Z,100415.97
2018-07-13T13:51:59.791Z,100408.83
2018-07-13T13:54:26.765Z,100411.83
2018-07-13T13:56:53.659Z,100410.86
2018-07-13T13:59:20.571Z,100422.84
2018-07-13T14:01:47.456Z,100412.64
2018-07-13T14:04:14.494Z,100416.13
2018-07-13T14:06:41.372Z,100422.00
2018-07-13T14:09:08.414Z,100413.09
2018-07-13T14:11:35.326Z,100413.31
2018-07-13T14:14:02.299Z,100409.14
2018-07-13T14:16:29.189Z,100397.75
2018-07-13T14:18:56.090Z,100407.42
2018-07-13T14:21:23.074Z,100404.09
2018-07-13T14:23:50.015Z,100397.61
2018-07-13T14:26:16.913Z,100399.02
2018-07-13T14:28:43.985Z,100402.30
2018-07-13T14:31:10.914Z,100397.25
2018-07-13T14:33:37.808Z,100401.34
2018-07-13T14:36:04.738Z,100394.66
2018-07-13T14:38:31.692Z,100392.18
2018-07-13T14:40:58.624Z,100391.59
2018-07-13T14:43:25.539Z,100387.89
2018-07-13T14:45:52.490Z,100389.39
2018-07-13T14:48:19.461Z,100383.92
2018-07-13T14:50:46.391Z,100383.73
2018-07-13T14:53:13.287Z,100379.37
2018-07-13T14:55:40.233Z,100383.03
2018-07-13T14:58:07.127Z,100379.92
2018-07-13T15:00:34.046Z,100375.06
2018-07-13T15:03:01.001Z,100372.64
2018-07-13T15:05:27.884Z,100372.30
2018-07-13T15:07:54.883Z,100369.70
2018-07-13T15:10:22.021Z,100366.13
2018-07-13T15:12:48.892Z,100369.19
2018-07-13T15:15:15.827Z,100367.73
2018-07-13T15:17:42.680Z,100376.35
2018-07-13T15:20:09.602Z,100363.33
2018-07-13T15:22:36.531Z,100358.20
2018-07-13T15:25:03.447Z,100360.23
2018-07-13T15:27:30.406Z,100353.92
2018-07-13T15:29:57.307Z,100353.95
2018-07-13T15:32:24.221Z,100356.41
2018-07-13T15:34:51.124Z,100357.95
2018-07-13T15:37:18.060Z,100352.02
2018-07-13T15:39:44.920Z,100357.56
2018-07-13T15:42:14.844Z,100350.06
2018-07-13T15:44:43.912Z,100359.67
2018-07-13T15:47:12.980Z,100354.16
2018-07-13T15:49:41.794Z,100346.39
2018-07-13T15:52:08.794Z,100351.96
2018-07-13T15:54:36.828Z,100339.82
2018-07-13T15:57:09.891Z,100335.48
2018-07-13T15:59:36.865Z,100338.57
2018-07-13T16:02:03.830Z,100341.91
2018-07-13T16:04:30.796Z,100334.62
2018-07-13T16:06:57.764Z,100339.38
2018-07-13T16:09:24.709Z,100330.30
2018-07-13T16:11:51.656Z,100334.49
2018-07-13T16:14:18.593Z,100323.69
2018-07-13T16:16:45.491Z,100328.80
2018-07-13T16:19:12.472Z,100331.69
2018-07-13T16:21:39.396Z,100326.80
2018-07-13T16:24:06.278Z,100327.25
2018-07-13T16:26:33.164Z,100332.47
2018-07-13T16:29:03.079Z,100332.99
2018-07-13T16:31:29.980Z,100327.27
2018-07-13T16:33:56.893Z,100331.01
2018-07-13T16:36:23.818Z,100324.67
2018-07-13T16:38:50.709Z,100328.23
2018-07-13T16:41:17.599Z,100319.06
2018-07-13T16:43:44.495Z,100315.22
2018-07-13T16:46:11.379Z,100317.63
2018-07-13T16:48:38.282Z,100317.29
2018-07-13T16:51:05.167Z,100318.63
2018-07-13T16:53:32.162Z,100312.15
2018-07-13T16:55:59.125Z,100311.03
2018-07-13T16:58:26.058Z,100312.11
2018-07-13T17:00:52.970Z,100305.52
2018-07-13T17:03:20.815Z,100304.25
2018-07-13T17:05:48.710Z,100306.95
2018-07-13T17:08:15.606Z,100296.91
2018-07-13T17:10:42.509Z,100304.61
2018-07-13T17:13:09.407Z,100304.00
2018-07-13T17:15:36.299Z,100295.14
2018-07-13T17:18:03.273Z,100296.39
2018-07-13T17:20:30.431Z,100299.70
2018-07-13T17:22:57.208Z,100299.41
2018-07-13T17:25:24.118Z,100300.44
2018-07-13T17:27:51.227Z,100301.34
2018-07-13T17:30:18.123Z,100297.79
2018-07-13T17:32:45.078Z,100302.09
2018-07-13T17:35:11.984Z,100302.81
2018-07-13T17:37:38.873Z,100303.28
2018-07-13T17:40:06.775Z,100298.84
2018-07-13T17:42:33.699Z,100291.75
2018-07-13T17:45:01.666Z,100295.80
2018-07-13T17:47:28.576Z,100296.92
2018-07-13T17:49:55.510Z,100300.31
2018-07-13T17:52:22.439Z,100297.95
2018-07-13T17:54:49.368Z,100297.25
2018-07-13T17:57:16.330Z,100301.41
2018-07-13T17:59:43.243Z,100303.83
2018-07-13T18:02:10.146Z,100304.11
2018-07-13T18:04:37.045Z,100306.52
2018-07-13T18:07:04.026Z,100310.88
2018-07-13T18:09:30.980Z,100315.59
2018-07-13T18:11:57.820Z,100313.31
2018-07-13T18:14:24.736Z,100315.13
2018-07-13T18:16:51.632Z,100314.29
2018-07-13T18:19:18.548Z,100322.83
2018-07-13T18:21:45.448Z,100323.38
2018-07-13T18:24:12.348Z,100327.00
2018-07-13T18:26:39.285Z,100321.11
2018-07-13T18:29:06.174Z,100326.27
2018-07-13T18:31:33.090Z,100326.48
2018-07-13T18:34:00.019Z,100330.55
2018-07-13T18:36:26.902Z,100329.18
2018-07-13T18:38:53.851Z,100329.91
2018-07-13T18:41:20.782Z,100331.36
2018-07-13T18:43:47.929Z,100338.16
2018-07-13T18:46:14.815Z,100337.62
2018-07-13T18:48:44.733Z,100334.78
2018-07-13T18:51:11.620Z,100335.63
2018-07-13T18:53:38.522Z,100341.95
2018-07-13T18:56:05.574Z,100340.41
2018-07-13T18:58:32.506Z,100344.29
2018-07-13T19:00:59.444Z,100346.88
2018-07-13T19:03:26.371Z,100353.44
2018-07-13T19:05:53.285Z,100360.30
2018-07-13T19:08:20.193Z,100357.94
2018-07-13T19:10:47.131Z,100357.55
2018-07-13T19:13:14.045Z,100361.96
2018-07-13T19:15:40.947Z,100362.37
2018-07-13T19:18:07.858Z,100365.33
2018-07-13T19:20:34.771Z,100364.62
2018-07-13T19:23:01.716Z,100366.28
2018-07-13T19:25:28.613Z,100367.09
2018-07-13T19:27:55.612Z,100378.68
2018-07-13T19:30:23.316Z,100379.84
2018-07-13T19:32:50.217Z,100379.22
2018-07-13T19:35:17.097Z,100380.88
2018-07-13T19:37:43.987Z,100385.64
2018-07-13T19:40:10.932Z,100390.86
2018-07-13T19:42:37.831Z,100395.04
2018-07-13T19:45:04.845Z,100400.27
2018-07-13T19:47:32.340Z,100399.64
2018-07-13T19:49:58.676Z,100407.51
2018-07-13T19:52:25.583Z,100414.45
2018-07-13T19:54:52.477Z,100414.89
2018-07-13T19:57:19.567Z,100427.38
2018-07-13T19:59:46.297Z,100421.21
2018-07-13T20:02:13.195Z,100424.97
2018-07-13T20:04:40.099Z,100427.36
2018-07-13T20:07:07.866Z,100426.56
2018-07-13T20:09:34.795Z,100425.69
2018-07-13T20:12:01.708Z,100430.91
2018-07-13T20:14:28.638Z,100429.50
2018-07-13T20:16:55.652Z,100434.64
2018-07-13T20:19:22.484Z,100430.17
2018-07-13T20:21:49.428Z,100435.32
2018-07-13T20:24:16.471Z,100437.75
2018-07-13T20:26:43.372Z,100440.27
2018-07-13T20:29:10.274Z,100448.34
2018-07-13T20:31:37.206Z,100445.77
2018-07-13T20:34:04.477Z,100447.55
2018-07-13T20:36:31.385Z,100451.66
2018-07-13T20:38:58.375Z,100452.31
2018-07-13T20:41:25.304Z,100457.36
2018-07-13T20:43:52.229Z,100458.59
2018-07-13T20:46:19.131Z,100460.95
2018-07-13T20:48:46.018Z,100461.97
2018-07-13T20:51:12.897Z,100461.31
2018-07-13T20:53:39.840Z,100455.73
2018-07-13T20:56:06.729Z,100456.02
2018-07-13T20:58:33.655Z,100462.97
2018-07-13T21:01:00.577Z,100459.20
2018-07-13T21:03:27.502Z,100456.98
2018-07-13T21:05:54.424Z,100456.98
2018-07-13T21:08:21.361Z,100461.86
2018-07-13T21:10:48.250Z,100455.77
2018-07-13T21:13:15.136Z,100461.67
2018-07-13T21:15:42.065Z,100460.64
2018-07-13T21:18:08.981Z,100460.16
2018-07-13T21:20:35.904Z,100464.31
2018-07-13T21:23:02.801Z,100462.95
2018-07-13T21:25:29.684Z,100469.58
2018-07-13T21:27:56.589Z,100471.69
2018-07-13T21:30:23.473Z,100470.52
2018-07-13T21:32:50.406Z,100467.54
2018-07-13T21:35:17.290Z,100465.41
2018-07-13T21:37:44.210Z,100468.05
2018-07-13T21:40:11.119Z,100469.22
2018-07-13T21:42:38.023Z,100474.96
2018-07-13T21:45:04.942Z,100471.37
2018-07-13T21:47:31.844Z,100474.40
2018-07-13T21:49:58.776Z,100476.28
2018-07-13T21:52:25.674Z,100475.02
2018-07-13T21:54:52.562Z,100470.20
2018-07-13T21:57:19.434Z,100474.05
2018-07-13T21:59:46.383Z,100478.81
2018-07-13T22:02:13.324Z,100475.77
2018-07-13T22:04:41.059Z,100478.16
2018-07-13T22:07:07.944Z,100480.50
2018-07-13T22:09:34.870Z,100484.75
2018-07-13T22:12:02.486Z,100481.40
2018-07-13T22:14:29.374Z,100482.59
2018-07-13T22:16:56.281Z,100482.51
2018-07-13T22:19:23.178Z,100481.31
2018-07-13T22:21:50.062Z,100481.56
2018-07-13T22:24:16.956Z,100486.27
2018-07-13T22:26:43.835Z,100486.77
2018-07-13T22:29:10.739Z,100484.23
2018-07-13T22:31:37.623Z,100482.92
2018-07-13T22:34:04.885Z,100490.34
2018-07-13T22:36:31.770Z,100489.72
2018-07-13T22:38:58.667Z,100489.83
2018-07-13T22:41:25.556Z,100493.28
2018-07-13T22:43:52.444Z,100487.69
2018-07-13T22:46:19.343Z,100483.41
2018-07-13T22:48:46.408Z,100486.39
2018-07-13T22:51:13.402Z,100476.53
2018-07-13T22:53:40.240Z,100475.93
2018-07-13T22:56:08.062Z,100482.31
2018-07-13T22:58:34.947Z,100482.33
2018-07-13T23:01:01.866Z,100487.39
2018-07-13T23:03:30.850Z,100484.09
2018-07-13T23:05:58.426Z,100488.20
2018-07-13T23:08:25.317Z,100486.06
2018-07-13T23:10:52.196Z,100492.64
2018-07-13T23:13:19.082Z,100492.52
2018-07-13T23:15:45.992Z,100488.53
2018-07-13T23:18:12.904Z,100492.00
2018-07-13T23:20:39.817Z,100489.73
2018-07-13T23:23:06.720Z,100485.85
2018-07-13T23:25:33.602Z,100483.89
2018-07-13T23:28:00.632Z,100480.61
2018-07-13T23:30:27.550Z,100488.06
2018-07-13T23:32:54.435Z,100487.02
2018-07-13T23:35:21.311Z,100481.25
2018-07-13T23:37:48.225Z,100475.20
2018-07-13T23:40:15.125Z,100477.78
2018-07-13T23:42:42.004Z,100480.97
2018-07-13T23:45:08.958Z,100476.77
2018-07-13T23:47:35.945Z,100474.24
2018-07-13T23:50:02.896Z,100483.36
2018-07-13T23:52:29.746Z,100480.22
2018-07-13T23:54:56.689Z,100475.39
2018-07-13T23:57:25.558Z,100473.28
2018-07-13T23:59:52.511Z,100475.05
